sensor_id;sensor_type;location;lat;lon;timestamp;pressure;altitude;pressure_sealevel;temperature;humidity
53316;BME280;39204;53.896;11.432;2023-04-23T05:16:02;100396.91;;;13.66;100.00
53316;BME280;39204;53.896;11.432;2023-04-23T05:17:32;100404.97;;;13.76;100.00
53316;BME280;39204;53.896;11.432;2023-04-23T05:19:02;100406.88;;;13.61;100.00
53316;BME280;39204;53.896;11.432;2023-04-23T05:20:33;100405.59;;;13.43;100.00
53316;BME280;39204;53.896;11.432;2023-04-23T05:22:03;100410.75;;;13.29;100.00
53316;BME280;39204;53.896;11.432;2023-04-23T05:23:34;100407.47;;;13.22;100.00
53316;BME280;39204;53.896;11.432;2023-04-23T05:25:05;100412.34;;;13.15;100.00
53316;BME280;39204;53.896;11.432;2023-04-23T05:26:35;100413.16;;;13.00;100.00
53316;BME280;39204;53.896;11.432;2023-04-23T05:28:05;100414.22;;;13.14;100.00
53316;BME280;39204;53.896;11.432;2023-04-23T05:29:37;100418.53;;;13.10;100.00
53316;BME280;39204;53.896;11.432;2023-04-23T05:31:07;100423.09;;;12.79;100.00
53316;BME280;39204;53.896;11.432;2023-04-23T05:32:38;100418.28;;;12.91;100.00
53316;BME280;39204;53.896;11.432;2023-04-23T05:34:08;100423.63;;;12.86;100.00
53316;BME280;39204;53.896;11.432;2023-04-23T05:35:38;100425.81;;;12.84;100.00
53316;BME280;39204;53.896;11.432;2023-04-23T05:37:08;100431.19;;;12.84;100.00
53316;BME280;39204;53.896;11.432;2023-04-23T05:38:40;100427.66;;;12.73;100.00
53316;BME280;39204;53.896;11.432;2023-04-23T05:40:10;100428.47;;;12.64;100.00
53316;BME280;39204;53.896;11.432;2023-04-23T05:41:40;100432.47;;;12.56;100.00
53316;BME280;39204;53.896;11.432;2023-04-23T05:43:11;100432.72;;;12.44;100.00
53316;BME280;39204;53.896;11.432;2023-04-23T05:44:41;100428.69;;;12.42;100.00
53316;BME280;39204;53.896;11.432;2023-04-23T05:46:12;100448.78;;;12.19;100.00
53316;BME280;39204;53.896;11.432;2023-04-23T05:47:42;100445.31;;;12.28;100.00
53316;BME280;39204;53.896;11.432;2023-04-23T05:49:12;100442.31;;;12.15;100.00
53316;BME280;39204;53.896;11.432;2023-04-23T05:50:42;100454.72;;;12.21;100.00
53316;BME280;39204;53.896;11.432;2023-04-23T05:52:13;100456.00;;;12.08;100.00
53316;BME280;39204;53.896;11.432;2023-04-23T05:53:43;100455.25;;;12.23;100.00
53316;BME280;39204;53.896;11.432;2023-04-23T05:55:13;100456.59;;;12.20;100.00
53316;BME280;39204;53.896;11.432;2023-04-23T05:56:45;100462.25;;;12.24;100.00
53316;BME280;39204;53.896;11.432;2023-04-23T05:58:15;100462.16;;;12.08;100.00
53316;BME280;39204;53.896;11.432;2023-04-23T05:59:46;100460.22;;;11.94;100.00
53316;BME280;39204;53.896;11.432;2023-04-23T06:01:16;100467.47;;;11.88;100.00
53316;BME280;39204;53.896;11.432;2023-04-23T06:02:46;100474.88;;;11.76;100.00
53316;BME280;39204;53.896;11.432;2023-04-23T06:04:17;100472.50;;;11.79;100.00
53316;BME280;39204;53.896;11.432;2023-04-23T06:05:47;100467.63;;;11.76;100.00
53316;BME280;39204;53.896;11.432;2023-04-23T06:07:17;100471.94;;;11.77;100.00
53316;BME280;39204;53.896;11.432;2023-04-23T06:08:48;100471.75;;;11.89;100.00
53316;BME280;39204;53.896;11.432;2023-04-23T06:10:20;100466.28;;;11.74;100.00
53316;BME280;39204;53.896;11.432;2023-04-23T06:11:51;100476.00;;;11.80;100.00
53316;BME280;39204;53.896;11.432;2023-04-23T06:13:21;100479.00;;;11.83;100.00
53316;BME280;39204;53.896;11.432;2023-04-23T06:14:52;100480.25;;;11.76;100.00
53316;BME280;39204;53.896;11.432;2023-04-23T06:16:23;100493.81;;;11.91;100.00
53316;BME280;39204;53.896;11.432;2023-04-23T06:17:53;100481.88;;;11.82;100.00
53316;BME280;39204;53.896;11.432;2023-04-23T06:19:24;100484.66;;;11.87;100.00
53316;BME280;39204;53.896;11.432;2023-04-23T06:20:57;100484.66;;;11.87;100.00
53316;BME280;39204;53.896;11.432;2023-04-23T06:22:27;100491.66;;;11.93;100.00
53316;BME280;39204;53.896;11.432;2023-04-23T06:23:57;100487.53;;;11.80;100.00
53316;BME280;39204;53.896;11.432;2023-04-23T06:25:28;100495.69;;;11.91;100.00
53316;BME280;39204;53.896;11.432;2023-04-23T06:26:58;100488.44;;;11.96;100.00
53316;BME280;39204;53.896;11.432;2023-04-23T06:28:28;100496.72;;;11.84;100.00
53316;BME280;39204;53.896;11.432;2023-04-23T06:29:58;100495.31;;;11.77;100.00
53316;BME280;39204;53.896;11.432;2023-04-23T06:31:29;100497.28;;;11.86;100.00
53316;BME280;39204;53.896;11.432;2023-04-23T06:33:00;100495.09;;;11.83;100.00
53316;BME280;39204;53.896;11.432;2023-04-23T06:34:31;100495.22;;;11.67;100.00
53316;BME280;39204;53.896;11.432;2023-04-23T06:36:04;100499.88;;;11.39;100.00
53316;BME280;39204;53.896;11.432;2023-04-23T06:37:35;100503.00;;;11.63;100.00
53316;BME280;39204;53.896;11.432;2023-04-23T06:39:05;100497.84;;;11.56;100.00
53316;BME280;39204;53.896;11.432;2023-04-23T06:40:35;100505.00;;;11.46;100.00
53316;BME280;39204;53.896;11.432;2023-04-23T06:42:06;100500.97;;;11.43;100.00
53316;BME280;39204;53.896;11.432;2023-04-23T06:43:36;100504.78;;;11.52;100.00
53316;BME280;39204;53.896;11.432;2023-04-23T06:45:07;100511.97;;;11.42;100.00
53316;BME280;39204;53.896;11.432;2023-04-23T06:46:37;100509.25;;;11.74;100.00
53316;BME280;39204;53.896;11.432;2023-04-23T06:48:07;100504.09;;;11.67;100.00
53316;BME280;39204;53.896;11.432;2023-04-23T06:49:38;100515.53;;;11.84;100.00
53316;BME280;39204;53.896;11.432;2023-04-23T06:51:09;100521.38;;;11.81;100.00
53316;BME280;39204;53.896;11.432;2023-04-23T06:52:39;100529.06;;;11.68;100.00
53316;BME280;39204;53.896;11.432;2023-04-23T06:54:10;100525.94;;;11.81;100.00
53316;BME280;39204;53.896;11.432;2023-04-23T06:55:40;100528.59;;;11.76;100.00
53316;BME280;39204;53.896;11.432;2023-04-23T06:57:10;100525.66;;;11.82;100.00
53316;BME280;39204;53.896;11.432;2023-04-23T06:58:40;100540.16;;;11.76;100.00
53316;BME280;39204;53.896;11.432;2023-04-23T07:00:11;100524.06;;;11.81;100.00
53316;BME280;39204;53.896;11.432;2023-04-23T07:01:42;100526.97;;;11.75;100.00
53316;BME280;39204;53.896;11.432;2023-04-23T07:03:12;100535.56;;;11.72;100.00
53316;BME280;39204;53.896;11.432;2023-04-23T07:04:42;100534.63;;;11.88;100.00
53316;BME280;39204;53.896;11.432;2023-04-23T07:06:12;100534.44;;;12.05;100.00
53316;BME280;39204;53.896;11.432;2023-04-23T07:07:43;100541.34;;;11.53;100.00
53316;BME280;39204;53.896;11.432;2023-04-23T07:09:13;100549.66;;;11.89;100.00
53316;BME280;39204;53.896;11.432;2023-04-23T07:10:44;100538.19;;;12.04;100.00
53316;BME280;39204;53.896;11.432;2023-04-23T07:12:14;100532.75;;;11.94;100.00
53316;BME280;39204;53.896;11.432;2023-04-23T07:13:44;100528.81;;;12.11;100.00
53316;BME280;39204;53.896;11.432;2023-04-23T07:15:15;100538.13;;;11.94;100.00
53316;BME280;39204;53.896;11.432;2023-04-23T07:16:45;100543.78;;;11.92;100.00
53316;BME280;39204;53.896;11.432;2023-04-23T07:18:15;100538.56;;;11.80;100.00
53316;BME280;39204;53.896;11.432;2023-04-23T07:19:46;100539.28;;;11.66;100.00
53316;BME280;39204;53.896;11.432;2023-04-23T07:21:17;100542.97;;;11.59;100.00
53316;BME280;39204;53.896;11.432;2023-04-23T07:22:47;100538.47;;;11.65;100.00
53316;BME280;39204;53.896;11.432;2023-04-23T07:24:17;100535.78;;;11.65;100.00
53316;BME280;39204;53.896;11.432;2023-04-23T07:25:48;100534.56;;;11.83;100.00
53316;BME280;39204;53.896;11.432;2023-04-23T07:27:18;100540.00;;;11.93;100.00
53316;BME280;39204;53.896;11.432;2023-04-23T07:28:48;100537.88;;;11.95;100.00
53316;BME280;39204;53.896;11.432;2023-04-23T07:30:20;100538.28;;;12.19;100.00
53316;BME280;39204;53.896;11.432;2023-04-23T07:31:50;100540.09;;;12.08;100.00
53316;BME280;39204;53.896;11.432;2023-04-23T07:33:20;100535.09;;;12.27;100.00
53316;BME280;39204;53.896;11.432;2023-04-23T07:34:51;100537.31;;;12.46;100.00
53316;BME280;39204;53.896;11.432;2023-04-23T07:36:21;100540.94;;;12.09;100.00
53316;BME280;39204;53.896;11.432;2023-04-23T07:37:52;100545.81;;;12.17;100.00
53316;BME280;39204;53.896;11.432;2023-04-23T07:39:22;100541.31;;;12.38;100.00
53316;BME280;39204;53.896;11.432;2023-04-23T07:40:53;100537.63;;;12.54;100.00
53316;BME280;39204;53.896;11.432;2023-04-23T07:42:23;100540.19;;;12.24;100.00
53316;BME280;39204;53.896;11.432;2023-04-23T07:43:53;100543.53;;;12.56;100.00
53316;BME280;39204;53.896;11.432;2023-04-23T07:45:24;100545.56;;;12.24;100.00
53316;BME280;39204;53.896;11.432;2023-04-23T07:46:54;100547.25;;;11.93;100.00
53316;BME280;39204;53.896;11.432;2023-04-23T07:48:24;100542.50;;;12.05;100.00
53316;BME280;39204;53.896;11.432;2023-04-23T07:49:55;100550.09;;;12.18;100.00
53316;BME280;39204;53.896;11.432;2023-04-23T07:51:25;100552.72;;;12.03;100.00
53316;BME280;39204;53.896;11.432;2023-04-23T07:52:55;100550.09;;;12.13;100.00
53316;BME280;39204;53.896;11.432;2023-04-23T07:54:26;100555.94;;;12.05;100.00
53316;BME280;39204;53.896;11.432;2023-04-23T07:55:56;100562.88;;;12.01;100.00
53316;BME280;39204;53.896;11.432;2023-04-23T07:57:27;100561.66;;;12.19;100.00
53316;BME280;39204;53.896;11.432;2023-04-23T07:58:58;100554.03;;;12.00;100.00
53316;BME280;39204;53.896;11.432;2023-04-23T08:00:28;100560.69;;;11.93;100.00
53316;BME280;39204;53.896;11.432;2023-04-23T08:01:59;100568.25;;;12.01;100.00
53316;BME280;39204;53.896;11.432;2023-04-23T08:03:29;100565.31;;;11.65;100.00
53316;BME280;39204;53.896;11.432;2023-04-23T08:04:59;100566.50;;;11.79;100.00
53316;BME280;39204;53.896;11.432;2023-04-23T08:06:29;100559.31;;;11.90;100.00
53316;BME280;39204;53.896;11.432;2023-04-23T08:08:02;100564.16;;;11.88;100.00
53316;BME280;39204;53.896;11.432;2023-04-23T08:09:32;100561.94;;;12.22;100.00
53316;BME280;39204;53.896;11.432;2023-04-23T08:11:04;100556.03;;;12.20;100.00
53316;BME280;39204;53.896;11.432;2023-04-23T08:12:34;100560.50;;;12.04;100.00
53316;BME280;39204;53.896;11.432;2023-04-23T08:14:05;100563.75;;;12.11;100.00
53316;BME280;39204;53.896;11.432;2023-04-23T08:15:35;100562.22;;;12.21;100.00
53316;BME280;39204;53.896;11.432;2023-04-23T08:17:06;100555.53;;;12.28;100.00
53316;BME280;39204;53.896;11.432;2023-04-23T08:18:36;100552.19;;;12.64;100.00
53316;BME280;39204;53.896;11.432;2023-04-23T08:20:07;100551.13;;;12.75;100.00
53316;BME280;39204;53.896;11.432;2023-04-23T08:21:38;100553.38;;;12.30;100.00
53316;BME280;39204;53.896;11.432;2023-04-23T08:23:08;100550.38;;;12.17;100.00
53316;BME280;39204;53.896;11.432;2023-04-23T08:24:39;100553.38;;;12.25;100.00
53316;BME280;39204;53.896;11.432;2023-04-23T08:26:10;100550.22;;;12.39;100.00
53316;BME280;39204;53.896;11.432;2023-04-23T08:27:40;100549.94;;;12.45;100.00
53316;BME280;39204;53.896;11.432;2023-04-23T08:29:12;100544.06;;;12.48;100.00
53316;BME280;39204;53.896;11.432;2023-04-23T08:30:43;100549.00;;;12.14;100.00
53316;BME280;39204;53.896;11.432;2023-04-23T08:32:13;100548.63;;;12.48;100.00
53316;BME280;39204;53.896;11.432;2023-04-23T08:33:44;100558.13;;;12.71;100.00
53316;BME280;39204;53.896;11.432;2023-04-23T08:35:14;100549.72;;;12.52;100.00
53316;BME280;39204;53.896;11.432;2023-04-23T08:36:45;100541.94;;;12.60;100.00
53316;BME280;39204;53.896;11.432;2023-04-23T08:38:16;100547.31;;;12.60;100.00
53316;BME280;39204;53.896;11.432;2023-04-23T08:39:46;100551.97;;;12.86;100.00
53316;BME280;39204;53.896;11.432;2023-04-23T08:41:17;100541.13;;;12.60;100.00
53316;BME280;39204;53.896;11.432;2023-04-23T08:44:31;100543.38;;;12.89;100.00
53316;BME280;39204;53.896;11.432;2023-04-23T08:46:11;100538.81;;;12.89;100.00
53316;BME280;39204;53.896;11.432;2023-04-23T08:47:43;100540.66;;;12.78;100.00
53316;BME280;39204;53.896;11.432;2023-04-23T08:49:16;100537.69;;;12.70;100.00
53316;BME280;39204;53.896;11.432;2023-04-23T08:50:47;100534.50;;;12.88;100.00
53316;BME280;39204;53.896;11.432;2023-04-23T08:52:24;100544.94;;;12.74;100.00
53316;BME280;39204;53.896;11.432;2023-04-23T08:53:57;100528.47;;;12.50;100.00
53316;BME280;39204;53.896;11.432;2023-04-23T08:55:28;100530.94;;;12.67;100.00
53316;BME280;39204;53.896;11.432;2023-04-23T08:56:59;100534.66;;;12.51;100.00
53316;BME280;39204;53.896;11.432;2023-04-23T08:58:31;100533.28;;;12.43;100.00
53316;BME280;39204;53.896;11.432;2023-04-23T09:00:03;100530.75;;;13.04;100.00
53316;BME280;39204;53.896;11.432;2023-04-23T09:01:37;100538.03;;;13.19;100.00
53316;BME280;39204;53.896;11.432;2023-04-23T09:03:08;100535.88;;;13.16;100.00
53316;BME280;39204;53.896;11.432;2023-04-23T09:04:38;100545.09;;;13.41;100.00
53316;BME280;39204;53.896;11.432;2023-04-23T09:06:09;100540.16;;;12.97;100.00
53316;BME280;39204;53.896;11.432;2023-04-23T09:07:40;100545.59;;;13.17;100.00
53316;BME280;39204;53.896;11.432;2023-04-23T09:09:15;100537.00;;;13.30;100.00
53316;BME280;39204;53.896;11.432;2023-04-23T09:10:47;100537.25;;;13.14;100.00
53316;BME280;39204;53.896;11.432;2023-04-23T09:12:19;100542.38;;;13.46;100.00
53316;BME280;39204;53.896;11.432;2023-04-23T09:13:50;100555.31;;;13.28;100.00
53316;BME280;39204;53.896;11.432;2023-04-23T09:15:20;100555.31;;;13.34;100.00
53316;BME280;39204;53.896;11.432;2023-04-23T09:16:51;100553.44;;;13.44;100.00
53316;BME280;39204;53.896;11.432;2023-04-23T09:18:22;100548.59;;;13.46;100.00
53316;BME280;39204;53.896;11.432;2023-04-23T09:19:53;100548.88;;;13.50;100.00
53316;BME280;39204;53.896;11.432;2023-04-23T09:21:23;100551.53;;;13.75;100.00
53316;BME280;39204;53.896;11.432;2023-04-23T09:22:53;100553.16;;;13.76;100.00
53316;BME280;39204;53.896;11.432;2023-04-23T09:24:24;100546.16;;;13.80;100.00
53316;BME280;39204;53.896;11.432;2023-04-23T09:25:55;100557.72;;;13.91;100.00
53316;BME280;39204;53.896;11.432;2023-04-23T09:27:26;100553.97;;;13.87;100.00
53316;BME280;39204;53.896;11.432;2023-04-23T09:28:56;100554.19;;;14.01;100.00
53316;BME280;39204;53.896;11.432;2023-04-23T09:30:26;100546.06;;;14.21;100.00
53316;BME280;39204;53.896;11.432;2023-04-23T09:32:29;100548.22;;;14.24;100.00
53316;BME280;39204;53.896;11.432;2023-04-23T09:34:00;100545.25;;;14.21;100.00
53316;BME280;39204;53.896;11.432;2023-04-23T09:35:31;100540.72;;;14.06;100.00
53316;BME280;39204;53.896;11.432;2023-04-23T09:37:05;100537.25;;;13.85;100.00
53316;BME280;39204;53.896;11.432;2023-04-23T09:38:40;100532.63;;;14.01;100.00
53316;BME280;39204;53.896;11.432;2023-04-23T09:40:12;100538.44;;;14.34;100.00
53316;BME280;39204;53.896;11.432;2023-04-23T09:41:43;100531.28;;;13.98;100.00
53316;BME280;39204;53.896;11.432;2023-04-23T09:43:16;100528.84;;;14.72;100.00
53316;BME280;39204;53.896;11.432;2023-04-23T09:44:55;100534.03;;;14.63;100.00
53316;BME280;39204;53.896;11.432;2023-04-23T09:46:37;100530.72;;;15.21;100.00
53316;BME280;39204;53.896;11.432;2023-04-23T09:48:08;100533.28;;;14.47;100.00
53316;BME280;39204;53.896;11.432;2023-04-23T09:49:45;100524.59;;;15.05;100.00
53316;BME280;39204;53.896;11.432;2023-04-23T09:51:16;100532.88;;;15.19;100.00
53316;BME280;39204;53.896;11.432;2023-04-23T09:52:53;100530.50;;;15.12;100.00
53316;BME280;39204;53.896;11.432;2023-04-23T09:54:24;100538.41;;;14.54;100.00
53316;BME280;39204;53.896;11.432;2023-04-23T09:55:55;100534.66;;;14.99;100.00
53316;BME280;39204;53.896;11.432;2023-04-23T09:57:25;100531.97;;;15.68;100.00
53316;BME280;39204;53.896;11.432;2023-04-23T09:58:56;100533.31;;;15.70;100.00
53316;BME280;39204;53.896;11.432;2023-04-23T10:00:31;100532.06;;;15.53;100.00
53316;BME280;39204;53.896;11.432;2023-04-23T10:02:04;100524.38;;;15.70;100.00
53316;BME280;39204;53.896;11.432;2023-04-23T10:03:35;100531.31;;;16.29;100.00
53316;BME280;39204;53.896;11.432;2023-04-23T10:05:15;100535.09;;;16.95;100.00
53316;BME280;39204;53.896;11.432;2023-04-23T10:06:57;100537.16;;;16.60;100.00
53316;BME280;39204;53.896;11.432;2023-04-23T10:08:29;100536.56;;;16.63;100.00
53316;BME280;39204;53.896;11.432;2023-04-23T10:10:00;100540.63;;;16.66;100.00
53316;BME280;39204;53.896;11.432;2023-04-23T10:11:31;100527.34;;;16.88;100.00
53316;BME280;39204;53.896;11.432;2023-04-23T10:13:01;100534.03;;;16.29;100.00
53316;BME280;39204;53.896;11.432;2023-04-23T10:14:32;100532.97;;;16.49;100.00
53316;BME280;39204;53.896;11.432;2023-04-23T10:16:03;100533.38;;;16.37;100.00
53316;BME280;39204;53.896;11.432;2023-04-23T10:17:34;100530.34;;;16.44;100.00
53316;BME280;39204;53.896;11.432;2023-04-23T10:19:06;100530.19;;;14.80;100.00
53316;BME280;39204;53.896;11.432;2023-04-23T10:20:39;100529.53;;;14.38;100.00
53316;BME280;39204;53.896;11.432;2023-04-23T10:22:12;100529.09;;;14.81;100.00
53316;BME280;39204;53.896;11.432;2023-04-23T10:23:46;100537.53;;;15.47;100.00
53316;BME280;39204;53.896;11.432;2023-04-23T10:25:18;100537.31;;;16.02;100.00
53316;BME280;39204;53.896;11.432;2023-04-23T10:26:50;100530.47;;;16.10;100.00
53316;BME280;39204;53.896;11.432;2023-04-23T10:28:21;100526.91;;;16.81;100.00
53316;BME280;39204;53.896;11.432;2023-04-23T10:29:59;100518.75;;;17.52;100.00
53316;BME280;39204;53.896;11.432;2023-04-23T10:31:31;100520.88;;;17.69;100.00
53316;BME280;39204;53.896;11.432;2023-04-23T10:33:03;100521.13;;;16.64;100.00
53316;BME280;39204;53.896;11.432;2023-04-23T10:34:33;100516.31;;;16.61;100.00
53316;BME280;39204;53.896;11.432;2023-04-23T10:36:05;100521.16;;;17.21;100.00
53316;BME280;39204;53.896;11.432;2023-04-23T10:37:36;100528.81;;;16.81;100.00
53316;BME280;39204;53.896;11.432;2023-04-23T10:39:07;100530.34;;;16.20;100.00
53316;BME280;39204;53.896;11.432;2023-04-23T10:40:43;100531.16;;;15.96;100.00
53316;BME280;39204;53.896;11.432;2023-04-23T10:42:16;100528.19;;;15.69;100.00
53316;BME280;39204;53.896;11.432;2023-04-23T10:43:47;100524.16;;;15.32;100.00
53316;BME280;39204;53.896;11.432;2023-04-23T10:45:18;100521.78;;;16.56;100.00
53316;BME280;39204;53.896;11.432;2023-04-23T10:46:54;100530.00;;;16.69;100.00
53316;BME280;39204;53.896;11.432;2023-04-23T10:49:32;100524.84;;;16.49;100.00
53316;BME280;39204;53.896;11.432;2023-04-23T10:50:43;100526.41;;;16.31;96.28
53316;BME280;39204;53.896;11.432;2023-04-23T10:52:17;100521.38;;;16.25;95.69
53316;BME280;39204;53.896;11.432;2023-04-23T10:53:48;100525.41;;;16.46;98.62
53316;BME280;39204;53.896;11.432;2023-04-23T10:55:25;100527.19;;;16.80;97.74
53316;BME280;39204;53.896;11.432;2023-04-23T10:56:58;100518.22;;;17.36;94.92
53316;BME280;39204;53.896;11.432;2023-04-23T10:58:47;100510.56;;;17.38;95.04
53316;BME280;39204;53.896;11.432;2023-04-23T11:00:17;100504.69;;;17.50;96.92
53316;BME280;39204;53.896;11.432;2023-04-23T11:01:51;100498.09;;;17.70;97.70
53316;BME280;39204;53.896;11.432;2023-04-23T11:03:37;100508.34;;;17.26;94.22
53316;BME280;39204;53.896;11.432;2023-04-23T11:05:08;100517.69;;;17.34;97.69
53316;BME280;39204;53.896;11.432;2023-04-23T11:07:06;100504.19;;;16.34;99.42
53316;BME280;39204;53.896;11.432;2023-04-23T11:08:36;100504.19;;;17.48;99.90
53316;BME280;39204;53.896;11.432;2023-04-23T11:10:13;100501.31;;;17.72;96.73
53316;BME280;39204;53.896;11.432;2023-04-23T11:11:44;100506.31;;;17.51;97.13
53316;BME280;39204;53.896;11.432;2023-04-23T11:13:25;100498.66;;;17.85;95.70
53316;BME280;39204;53.896;11.432;2023-04-23T11:14:57;100500.88;;;17.64;95.51
53316;BME280;39204;53.896;11.432;2023-04-23T11:16:30;100498.56;;;16.92;97.19
53316;BME280;39204;53.896;11.432;2023-04-23T11:18:01;100498.19;;;16.99;98.41
53316;BME280;39204;53.896;11.432;2023-04-23T11:19:36;100508.47;;;17.16;94.78
53316;BME280;39204;53.896;11.432;2023-04-23T11:21:07;100505.06;;;16.30;92.47
53316;BME280;39204;53.896;11.432;2023-04-23T11:22:40;100514.63;;;15.98;95.80
53316;BME280;39204;53.896;11.432;2023-04-23T11:24:11;100505.91;;;16.49;100.00
53316;BME280;39204;53.896;11.432;2023-04-23T11:25:42;100513.75;;;16.51;98.93
53316;BME280;39204;53.896;11.432;2023-04-23T11:27:15;100509.53;;;16.20;97.37
53316;BME280;39204;53.896;11.432;2023-04-23T11:28:48;100501.09;;;15.98;96.87
53316;BME280;39204;53.896;11.432;2023-04-23T11:30:25;100513.03;;;16.21;98.90
53316;BME280;39204;53.896;11.432;2023-04-23T11:31:56;100508.59;;;16.49;99.00
53316;BME280;39204;53.896;11.432;2023-04-23T11:33:27;100513.50;;;16.90;97.82
53316;BME280;39204;53.896;11.432;2023-04-23T11:34:59;100509.94;;;16.95;95.16
53316;BME280;39204;53.896;11.432;2023-04-23T11:36:34;100516.38;;;16.80;95.44
53316;BME280;39204;53.896;11.432;2023-04-23T11:38:07;100505.09;;;17.24;95.58
53316;BME280;39204;53.896;11.432;2023-04-23T11:39:39;100511.16;;;17.35;94.48
53316;BME280;39204;53.896;11.432;2023-04-23T11:41:10;100516.13;;;17.47;95.00
53316;BME280;39204;53.896;11.432;2023-04-23T11:42:47;100518.94;;;16.47;92.44
53316;BME280;39204;53.896;11.432;2023-04-23T11:44:22;100505.13;;;17.05;93.80
53316;BME280;39204;53.896;11.432;2023-04-23T11:45:54;100509.88;;;17.46;94.97
53316;BME280;39204;53.896;11.432;2023-04-23T11:47:24;100509.16;;;17.73;93.63
53316;BME280;39204;53.896;11.432;2023-04-23T11:48:55;100506.97;;;17.75;92.28
53316;BME280;39204;53.896;11.432;2023-04-23T11:50:30;100504.09;;;17.53;92.74
53316;BME280;39204;53.896;11.432;2023-04-23T11:52:02;100499.88;;;17.14;91.99
53316;BME280;39204;53.896;11.432;2023-04-23T11:53:32;100504.19;;;16.96;91.31
53316;BME280;39204;53.896;11.432;2023-04-23T11:55:07;100501.53;;;16.72;90.66
53316;BME280;39204;53.896;11.432;2023-04-23T11:56:38;100506.69;;;16.50;92.84
53316;BME280;39204;53.896;11.432;2023-04-23T11:58:08;100505.16;;;16.86;92.77
53316;BME280;39204;53.896;11.432;2023-04-23T11:59:40;100499.22;;;16.65;91.64
53316;BME280;39204;53.896;11.432;2023-04-23T12:01:11;100497.16;;;17.47;94.16
53316;BME280;39204;53.896;11.432;2023-04-23T12:04:26;100493.03;;;17.49;90.67
53316;BME280;39204;53.896;11.432;2023-04-23T12:05:57;100489.28;;;17.31;90.39
53316;BME280;39204;53.896;11.432;2023-04-23T12:07:31;100497.59;;;17.67;91.75
53316;BME280;39204;53.896;11.432;2023-04-23T12:09:02;100499.38;;;17.91;91.53
53316;BME280;39204;53.896;11.432;2023-04-23T12:10:32;100508.56;;;17.11;90.12
53316;BME280;39204;53.896;11.432;2023-04-23T12:12:03;100505.53;;;17.31;90.91
53316;BME280;39204;53.896;11.432;2023-04-23T12:13:34;100509.06;;;17.32;90.42
53316;BME280;39204;53.896;11.432;2023-04-23T12:15:05;100500.94;;;17.32;89.03
53316;BME280;39204;53.896;11.432;2023-04-23T12:16:41;100510.88;;;17.69;89.57
53316;BME280;39204;53.896;11.432;2023-04-23T12:18:11;100508.75;;;17.66;87.55
53316;BME280;39204;53.896;11.432;2023-04-23T12:19:42;100511.56;;;17.28;89.62
53316;BME280;39204;53.896;11.432;2023-04-23T12:21:14;100512.28;;;17.34;89.46
53316;BME280;39204;53.896;11.432;2023-04-23T12:22:44;100506.09;;;17.80;90.30
53316;BME280;39204;53.896;11.432;2023-04-23T12:24:15;100522.78;;;17.68;87.35
53316;BME280;39204;53.896;11.432;2023-04-23T12:25:45;100517.63;;;17.85;87.36
53316;BME280;39204;53.896;11.432;2023-04-23T12:27:18;100528.50;;;17.99;86.99
53316;BME280;39204;53.896;11.432;2023-04-23T12:28:54;100521.78;;;18.10;86.92
53316;BME280;39204;53.896;11.432;2023-04-23T12:30:31;100516.13;;;17.93;83.97
53316;BME280;39204;53.896;11.432;2023-04-23T12:32:01;100522.56;;;18.11;85.15
53316;BME280;39204;53.896;11.432;2023-04-23T12:33:33;100513.84;;;17.67;83.76
53316;BME280;39204;53.896;11.432;2023-04-23T12:35:04;100507.41;;;18.10;87.61
53316;BME280;39204;53.896;11.432;2023-04-23T12:36:37;100517.03;;;18.16;86.11
53316;BME280;39204;53.896;11.432;2023-04-23T12:38:26;100510.50;;;18.45;86.74
53316;BME280;39204;53.896;11.432;2023-04-23T12:39:56;100508.00;;;18.21;83.92
53316;BME280;39204;53.896;11.432;2023-04-23T12:41:28;100510.00;;;18.29;84.96
53316;BME280;39204;53.896;11.432;2023-04-23T12:42:59;100500.84;;;18.38;85.66
53316;BME280;39204;53.896;11.432;2023-04-23T12:44:38;100495.44;;;18.25;83.30
53316;BME280;39204;53.896;11.432;2023-04-23T12:46:08;100489.31;;;18.19;83.32
53316;BME280;39204;53.896;11.432;2023-04-23T12:47:39;100491.91;;;18.24;82.14
53316;BME280;39204;53.896;11.432;2023-04-23T12:49:09;100480.66;;;17.76;83.73
53316;BME280;39204;53.896;11.432;2023-04-23T12:50:40;100491.75;;;17.47;82.33
53316;BME280;39204;53.896;11.432;2023-04-23T12:52:15;100493.66;;;17.60;81.79
53316;BME280;39204;53.896;11.432;2023-04-23T12:53:45;100493.56;;;17.51;78.25
53316;BME280;39204;53.896;11.432;2023-04-23T12:55:15;100487.00;;;17.85;81.33
53316;BME280;39204;53.896;11.432;2023-04-23T12:56:46;100485.69;;;17.36;80.52
53316;BME280;39204;53.896;11.432;2023-04-23T12:58:16;100485.84;;;17.26;83.21
53316;BME280;39204;53.896;11.432;2023-04-23T12:59:46;100490.22;;;18.01;84.83
53316;BME280;39204;53.896;11.432;2023-04-23T13:01:16;100491.22;;;18.19;82.40
53316;BME280;39204;53.896;11.432;2023-04-23T13:02:47;100489.31;;;17.92;80.08
53316;BME280;39204;53.896;11.432;2023-04-23T13:04:17;100481.25;;;17.86;79.90
53316;BME280;39204;53.896;11.432;2023-04-23T13:05:47;100484.38;;;18.07;81.08
53316;BME280;39204;53.896;11.432;2023-04-23T13:07:18;100482.81;;;18.43;79.91
53316;BME280;39204;53.896;11.432;2023-04-23T13:08:49;100487.31;;;18.25;76.61